sensor_id;sensor_type;location;lat;lon;timestamp;P1;durP1;ratioP1;P2;durP2;ratioP2
63807;SDS011;49961;43.970;22.868;2023-04-01T00:00:11;13.90;;;7.27;;
63807;SDS011;49961;43.970;22.868;2023-04-01T00:01:12;11.77;;;7.00;;
63807;SDS011;49961;43.970;22.868;2023-04-01T00:02:14;11.67;;;7.00;;
63807;SDS011;49961;43.970;22.868;2023-04-01T00:03:14;13.33;;;7.20;;
63807;SDS011;49961;43.970;22.868;2023-04-01T00:04:15;12.87;;;6.97;;
63807;SDS011;49961;43.970;22.868;2023-04-01T00:05:15;14.50;;;7.37;;
63807;SDS011;49961;43.970;22.868;2023-04-01T00:06:19;13.63;;;7.80;;
63807;SDS011;49961;43.970;22.868;2023-04-01T00:07:19;13.00;;;7.07;;
63807;SDS011;49961;43.970;22.868;2023-04-01T00:08:20;14.67;;;7.57;;
63807;SDS011;49961;43.970;22.868;2023-04-01T00:09:20;14.63;;;7.13;;
63807;SDS011;49961;43.970;22.868;2023-04-01T00:10:21;10.70;;;6.63;;
63807;SDS011;49961;43.970;22.868;2023-04-01T00:11:21;11.87;;;7.03;;
63807;SDS011;49961;43.970;22.868;2023-04-01T00:12:22;11.80;;;7.53;;
63807;SDS011;49961;43.970;22.868;2023-04-01T00:13:25;13.83;;;7.53;;
63807;SDS011;49961;43.970;22.868;2023-04-01T00:14:26;14.50;;;7.67;;
63807;SDS011;49961;43.970;22.868;2023-04-01T00:15:26;12.37;;;7.20;;
63807;SDS011;49961;43.970;22.868;2023-04-01T00:16:27;12.97;;;7.97;;
63807;SDS011;49961;43.970;22.868;2023-04-01T00:17:27;13.00;;;7.40;;
63807;SDS011;49961;43.970;22.868;2023-04-01T00:18:28;12.70;;;7.00;;
63807;SDS011;49961;43.970;22.868;2023-04-01T00:19:28;13.13;;;7.57;;
63807;SDS011;49961;43.970;22.868;2023-04-01T00:20:29;13.03;;;7.53;;
63807;SDS011;49961;43.970;22.868;2023-04-01T00:21:30;13.33;;;7.23;;
63807;SDS011;49961;43.970;22.868;2023-04-01T00:22:30;15.80;;;7.63;;
63807;SDS011;49961;43.970;22.868;2023-04-01T00:23:31;12.33;;;7.90;;
63807;SDS011;49961;43.970;22.868;2023-04-01T00:24:31;10.70;;;8.03;;
63807;SDS011;49961;43.970;22.868;2023-04-01T00:25:32;16.17;;;9.17;;
63807;SDS011;49961;43.970;22.868;2023-04-01T00:26:32;13.50;;;8.40;;
63807;SDS011;49961;43.970;22.868;2023-04-01T00:27:33;10.40;;;8.10;;
63807;SDS011;49961;43.970;22.868;2023-04-01T00:28:33;13.23;;;8.63;;
63807;SDS011;49961;43.970;22.868;2023-04-01T00:29:34;10.97;;;8.30;;
63807;SDS011;49961;43.970;22.868;2023-04-01T00:30:36;15.03;;;8.80;;
63807;SDS011;49961;43.970;22.868;2023-04-01T00:31:37;14.53;;;8.83;;
63807;SDS011;49961;43.970;22.868;2023-04-01T00:32:37;12.23;;;8.97;;
63807;SDS011;49961;43.970;22.868;2023-04-01T00:33:38;17.77;;;9.97;;
63807;SDS011;49961;43.970;22.868;2023-04-01T00:34:40;13.43;;;9.23;;
63807;SDS011;49961;43.970;22.868;2023-04-01T00:35:41;14.57;;;9.53;;
63807;SDS011;49961;43.970;22.868;2023-04-01T00:36:41;16.13;;;9.87;;
63807;SDS011;49961;43.970;22.868;2023-04-01T00:37:42;15.50;;;9.70;;
63807;SDS011;49961;43.970;22.868;2023-04-01T00:38:42;14.37;;;10.07;;
63807;SDS011;49961;43.970;22.868;2023-04-01T00:39:43;17.43;;;9.60;;
63807;SDS011;49961;43.970;22.868;2023-04-01T00:40:44;12.97;;;9.03;;
63807;SDS011;49961;43.970;22.868;2023-04-01T00:41:46;12.73;;;9.90;;
63807;SDS011;49961;43.970;22.868;2023-04-01T00:42:46;13.03;;;10.23;;
63807;SDS011;49961;43.970;22.868;2023-04-01T00:43:48;14.73;;;10.30;;
63807;SDS011;49961;43.970;22.868;2023-04-01T00:44:53;14.87;;;10.10;;
63807;SDS011;49961;43.970;22.868;2023-04-01T00:45:54;15.07;;;10.40;;
63807;SDS011;49961;43.970;22.868;2023-04-01T00:46:55;13.87;;;9.73;;
63807;SDS011;49961;43.970;22.868;2023-04-01T00:47:56;15.70;;;10.37;;
63807;SDS011;49961;43.970;22.868;2023-04-01T00:49:01;15.60;;;10.60;;
63807;SDS011;49961;43.970;22.868;2023-04-01T00:50:02;15.90;;;10.27;;
63807;SDS011;49961;43.970;22.868;2023-04-01T00:52:12;16.03;;;10.10;;
63807;SDS011;49961;43.970;22.868;2023-04-01T00:53:16;17.87;;;10.33;;
63807;SDS011;49961;43.970;22.868;2023-04-01T00:54:19;18.23;;;10.87;;
63807;SDS011;49961;43.970;22.868;2023-04-01T00:55:21;26.57;;;11.83;;
63807;SDS011;49961;43.970;22.868;2023-04-01T00:56:44;17.57;;;11.50;;
63807;SDS011;49961;43.970;22.868;2023-04-01T00:57:49;16.50;;;9.30;;
63807;SDS011;49961;43.970;22.868;2023-04-01T00:58:57;16.77;;;10.03;;
63807;SDS011;49961;43.970;22.868;2023-04-01T01:00:03;13.90;;;10.30;;
63807;SDS011;49961;43.970;22.868;2023-04-01T01:01:07;14.03;;;10.27;;
63807;SDS011;49961;43.970;22.868;2023-04-01T01:02:10;14.57;;;10.23;;
63807;SDS011;49961;43.970;22.868;2023-04-01T01:03:12;12.70;;;9.07;;
63807;SDS011;49961;43.970;22.868;2023-04-01T01:04:22;11.83;;;8.47;;
63807;SDS011;49961;43.970;22.868;2023-04-01T01:05:29;12.83;;;8.80;;
63807;SDS011;49961;43.970;22.868;2023-04-01T01:08:15;11.77;;;8.90;;
63807;SDS011;49961;43.970;22.868;2023-04-01T01:09:37;13.67;;;8.63;;
63807;SDS011;49961;43.970;22.868;2023-04-01T01:11:04;15.43;;;8.73;;
63807;SDS011;49961;43.970;22.868;2023-04-01T01:12:09;12.70;;;8.93;;
63807;SDS011;49961;43.970;22.868;2023-04-01T01:13:13;12.90;;;8.97;;
63807;SDS011;49961;43.970;22.868;2023-04-01T01:15:32;15.47;;;8.80;;
63807;SDS011;49961;43.970;22.868;2023-04-01T01:16:36;12.97;;;9.57;;
63807;SDS011;49961;43.970;22.868;2023-04-01T01:19:57;16.10;;;9.53;;
63807;SDS011;49961;43.970;22.868;2023-04-01T01:27:08;11.73;;;9.13;;
63807;SDS011;49961;43.970;22.868;2023-04-01T01:31:07;14.13;;;10.00;;
63807;SDS011;49961;43.970;22.868;2023-04-01T01:33:17;16.90;;;10.90;;
63807;SDS011;49961;43.970;22.868;2023-04-01T01:34:50;18.33;;;11.30;;
63807;SDS011;49961;43.970;22.868;2023-04-01T01:35:53;17.23;;;11.47;;
63807;SDS011;49961;43.970;22.868;2023-04-01T01:36:57;14.83;;;11.57;;
63807;SDS011;49961;43.970;22.868;2023-04-01T01:38:02;15.20;;;11.60;;
63807;SDS011;49961;43.970;22.868;2023-04-01T01:39:06;16.20;;;12.37;;
63807;SDS011;49961;43.970;22.868;2023-04-01T01:40:10;20.87;;;12.03;;
63807;SDS011;49961;43.970;22.868;2023-04-01T01:41:12;18.97;;;12.77;;
63807;SDS011;49961;43.970;22.868;2023-04-01T01:42:16;17.33;;;12.53;;
63807;SDS011;49961;43.970;22.868;2023-04-01T01:43:24;18.03;;;12.10;;
63807;SDS011;49961;43.970;22.868;2023-04-01T01:44:30;17.20;;;13.10;;
63807;SDS011;49961;43.970;22.868;2023-04-01T01:45:33;18.77;;;12.57;;
63807;SDS011;49961;43.970;22.868;2023-04-01T01:46:38;18.17;;;12.87;;
63807;SDS011;49961;43.970;22.868;2023-04-01T01:47:41;20.80;;;13.80;;
63807;SDS011;49961;43.970;22.868;2023-04-01T01:48:42;17.93;;;13.60;;
63807;SDS011;49961;43.970;22.868;2023-04-01T01:49:45;17.13;;;14.13;;
63807;SDS011;49961;43.970;22.868;2023-04-01T01:50:46;20.93;;;15.33;;
63807;SDS011;49961;43.970;22.868;2023-04-01T01:51:48;20.33;;;15.20;;
63807;SDS011;49961;43.970;22.868;2023-04-01T01:52:48;23.50;;;15.77;;
63807;SDS011;49961;43.970;22.868;2023-04-01T01:53:49;21.83;;;15.77;;
63807;SDS011;49961;43.970;22.868;2023-04-01T01:54:50;20.03;;;15.57;;
63807;SDS011;49961;43.970;22.868;2023-04-01T01:55:52;23.83;;;15.93;;
63807;SDS011;49961;43.970;22.868;2023-04-01T01:56:55;22.07;;;15.80;;
63807;SDS011;49961;43.970;22.868;2023-04-01T01:58:09;20.97;;;15.50;;
63807;SDS011;49961;43.970;22.868;2023-04-01T01:59:16;20.60;;;15.50;;
63807;SDS011;49961;43.970;22.868;2023-04-01T02:00:20;20.67;;;15.77;;
63807;SDS011;49961;43.970;22.868;2023-04-01T02:01:24;19.47;;;15.83;;
63807;SDS011;49961;43.970;22.868;2023-04-01T02:02:28;21.13;;;15.20;;
63807;SDS011;49961;43.970;22.868;2023-04-01T02:03:33;22.53;;;16.13;;
63807;SDS011;49961;43.970;22.868;2023-04-01T02:04:37;21.67;;;14.93;;
63807;SDS011;49961;43.970;22.868;2023-04-01T02:05:40;21.80;;;15.43;;
63807;SDS011;49961;43.970;22.868;2023-04-01T02:06:43;21.13;;;15.43;;
63807;SDS011;49961;43.970;22.868;2023-04-01T02:07:57;19.73;;;15.47;;
63807;SDS011;49961;43.970;22.868;2023-04-01T02:09:04;25.37;;;15.07;;
63807;SDS011;49961;43.970;22.868;2023-04-01T02:10:07;21.77;;;15.47;;
63807;SDS011;49961;43.970;22.868;2023-04-01T02:11:09;19.67;;;15.17;;
63807;SDS011;49961;43.970;22.868;2023-04-01T02:12:12;22.43;;;16.27;;
63807;SDS011;49961;43.970;22.868;2023-04-01T02:13:18;22.50;;;15.90;;
63807;SDS011;49961;43.970;22.868;2023-04-01T02:14:28;25.27;;;16.67;;
63807;SDS011;49961;43.970;22.868;2023-04-01T02:15:37;21.63;;;16.47;;
63807;SDS011;49961;43.970;22.868;2023-04-01T02:17:49;21.07;;;16.77;;
63807;SDS011;49961;43.970;22.868;2023-04-01T02:18:52;24.23;;;16.83;;
63807;SDS011;49961;43.970;22.868;2023-04-01T02:20:07;22.40;;;17.50;;
63807;SDS011;49961;43.970;22.868;2023-04-01T02:21:12;21.40;;;16.80;;
63807;SDS011;49961;43.970;22.868;2023-04-01T02:22:16;21.53;;;16.60;;
63807;SDS011;49961;43.970;22.868;2023-04-01T02:23:20;20.07;;;17.00;;
63807;SDS011;49961;43.970;22.868;2023-04-01T02:24:20;21.93;;;16.87;;
63807;SDS011;49961;43.970;22.868;2023-04-01T02:25:25;22.87;;;17.63;;
63807;SDS011;49961;43.970;22.868;2023-04-01T02:26:29;20.20;;;16.70;;
63807;SDS011;49961;43.970;22.868;2023-04-01T02:27:30;21.90;;;16.77;;
63807;SDS011;49961;43.970;22.868;2023-04-01T02:28:31;21.43;;;17.23;;
63807;SDS011;49961;43.970;22.868;2023-04-01T02:29:33;24.03;;;18.00;;
63807;SDS011;49961;43.970;22.868;2023-04-01T02:30:34;21.50;;;17.23;;
63807;SDS011;49961;43.970;22.868;2023-04-01T02:31:37;23.17;;;17.27;;
63807;SDS011;49961;43.970;22.868;2023-04-01T02:32:37;22.03;;;16.47;;
63807;SDS011;49961;43.970;22.868;2023-04-01T02:33:39;22.47;;;16.33;;
63807;SDS011;49961;43.970;22.868;2023-04-01T02:34:40;20.87;;;16.73;;
63807;SDS011;49961;43.970;22.868;2023-04-01T02:35:41;22.33;;;16.53;;
63807;SDS011;49961;43.970;22.868;2023-04-01T02:36:41;20.00;;;16.53;;
63807;SDS011;49961;43.970;22.868;2023-04-01T02:37:43;24.57;;;16.50;;
63807;SDS011;49961;43.970;22.868;2023-04-01T02:38:46;18.70;;;16.13;;
63807;SDS011;49961;43.970;22.868;2023-04-01T02:39:49;20.73;;;16.53;;
63807;SDS011;49961;43.970;22.868;2023-04-01T02:40:51;21.50;;;15.90;;
63807;SDS011;49961;43.970;22.868;2023-04-01T02:41:57;21.47;;;16.23;;
63807;SDS011;49961;43.970;22.868;2023-04-01T02:42:57;24.50;;;15.60;;
63807;SDS011;49961;43.970;22.868;2023-04-01T02:43:58;20.17;;;15.97;;
63807;SDS011;49961;43.970;22.868;2023-04-01T02:44:59;21.87;;;15.97;;
63807;SDS011;49961;43.970;22.868;2023-04-01T02:46:00;24.27;;;16.20;;
63807;SDS011;49961;43.970;22.868;2023-04-01T02:47:01;26.87;;;16.63;;
63807;SDS011;49961;43.970;22.868;2023-04-01T02:48:02;25.80;;;16.07;;
63807;SDS011;49961;43.970;22.868;2023-04-01T02:49:03;23.27;;;15.97;;
63807;SDS011;49961;43.970;22.868;2023-04-01T02:50:04;22.67;;;15.33;;
63807;SDS011;49961;43.970;22.868;2023-04-01T02:51:05;23.27;;;15.73;;
63807;SDS011;49961;43.970;22.868;2023-04-01T02:52:06;21.83;;;15.50;;
63807;SDS011;49961;43.970;22.868;2023-04-01T02:53:06;18.10;;;13.67;;
63807;SDS011;49961;43.970;22.868;2023-04-01T02:54:07;20.37;;;15.43;;
63807;SDS011;49961;43.970;22.868;2023-04-01T02:55:07;20.10;;;14.50;;
63807;SDS011;49961;43.970;22.868;2023-04-01T02:56:08;19.00;;;14.57;;
63807;SDS011;49961;43.970;22.868;2023-04-01T02:57:08;18.83;;;13.77;;
63807;SDS011;49961;43.970;22.868;2023-04-01T02:58:09;16.37;;;13.57;;
63807;SDS011;49961;43.970;22.868;2023-04-01T02:59:09;19.03;;;13.37;;
63807;SDS011;49961;43.970;22.868;2023-04-01T03:00:10;17.03;;;12.97;;
63807;SDS011;49961;43.970;22.868;2023-04-01T03:01:11;19.17;;;13.90;;
63807;SDS011;49961;43.970;22.868;2023-04-01T03:02:12;16.90;;;13.27;;
63807;SDS011;49961;43.970;22.868;2023-04-01T03:03:12;15.07;;;13.13;;
63807;SDS011;49961;43.970;22.868;2023-04-01T03:04:13;15.67;;;13.33;;
63807;SDS011;49961;43.970;22.868;2023-04-01T03:05:14;17.67;;;12.93;;
63807;SDS011;49961;43.970;22.868;2023-04-01T03:06:15;17.57;;;13.77;;
63807;SDS011;49961;43.970;22.868;2023-04-01T03:07:16;15.50;;;12.80;;
63807;SDS011;49961;43.970;22.868;2023-04-01T03:08:16;16.33;;;13.20;;
63807;SDS011;49961;43.970;22.868;2023-04-01T03:09:17;18.23;;;12.97;;
63807;SDS011;49961;43.970;22.868;2023-04-01T03:10:17;17.10;;;13.23;;
63807;SDS011;49961;43.970;22.868;2023-04-01T03:11:18;18.53;;;13.80;;
63807;SDS011;49961;43.970;22.868;2023-04-01T03:12:18;15.40;;;13.30;;
63807;SDS011;49961;43.970;22.868;2023-04-01T03:13:18;16.60;;;13.17;;
63807;SDS011;49961;43.970;22.868;2023-04-01T03:14:19;16.67;;;12.73;;
63807;SDS011;49961;43.970;22.868;2023-04-01T03:15:20;18.53;;;13.13;;
63807;SDS011;49961;43.970;22.868;2023-04-01T03:16:21;15.53;;;12.47;;
63807;SDS011;49961;43.970;22.868;2023-04-01T03:17:21;17.47;;;13.00;;
63807;SDS011;49961;43.970;22.868;2023-04-01T03:18:21;17.90;;;12.77;;
63807;SDS011;49961;43.970;22.868;2023-04-01T03:19:22;17.53;;;13.03;;
63807;SDS011;49961;43.970;22.868;2023-04-01T03:20:22;17.50;;;13.87;;
63807;SDS011;49961;43.970;22.868;2023-04-01T03:21:23;17.07;;;13.57;;
63807;SDS011;49961;43.970;22.868;2023-04-01T03:22:24;18.43;;;12.80;;
63807;SDS011;49961;43.970;22.868;2023-04-01T03:23:24;15.60;;;13.53;;
63807;SDS011;49961;43.970;22.868;2023-04-01T03:24:25;15.77;;;13.33;;
63807;SDS011;49961;43.970;22.868;2023-04-01T03:25:25;19.67;;;13.47;;
63807;SDS011;49961;43.970;22.868;2023-04-01T03:26:28;18.93;;;13.70;;
63807;SDS011;49961;43.970;22.868;2023-04-01T03:27:28;20.13;;;13.97;;
63807;SDS011;49961;43.970;22.868;2023-04-01T03:28:29;18.40;;;13.80;;
63807;SDS011;49961;43.970;22.868;2023-04-01T03:29:30;20.03;;;13.60;;
63807;SDS011;49961;43.970;22.868;2023-04-01T03:32:27;17.53;;;13.40;;
63807;SDS011;49961;43.970;22.868;2023-04-01T03:33:27;19.90;;;14.60;;
63807;SDS011;49961;43.970;22.868;2023-04-01T03:34:28;17.07;;;13.70;;
63807;SDS011;49961;43.970;22.868;2023-04-01T03:35:28;18.53;;;13.70;;
63807;SDS011;49961;43.970;22.868;2023-04-01T03:36:29;15.93;;;13.73;;
63807;SDS011;49961;43.970;22.868;2023-04-01T03:37:29;20.03;;;13.80;;
63807;SDS011;49961;43.970;22.868;2023-04-01T03:38:29;14.77;;;9.17;;
63807;SDS011;49961;43.970;22.868;2023-04-01T03:39:30;15.70;;;12.07;;
63807;SDS011;49961;43.970;22.868;2023-04-01T03:40:31;16.93;;;11.23;;
63807;SDS011;49961;43.970;22.868;2023-04-01T03:41:34;16.80;;;12.03;;
63807;SDS011;49961;43.970;22.868;2023-04-01T03:42:36;15.77;;;11.97;;
63807;SDS011;49961;43.970;22.868;2023-04-01T03:43:37;14.63;;;12.47;;
63807;SDS011;49961;43.970;22.868;2023-04-01T03:44:37;16.53;;;11.87;;
63807;SDS011;49961;43.970;22.868;2023-04-01T03:45:48;17.13;;;12.33;;
63807;SDS011;49961;43.970;22.868;2023-04-01T03:46:50;17.43;;;12.90;;
63807;SDS011;49961;43.970;22.868;2023-04-01T03:47:50;17.90;;;12.90;;
63807;SDS011;49961;43.970;22.868;2023-04-01T03:48:51;16.60;;;12.70;;
63807;SDS011;49961;43.970;22.868;2023-04-01T03:49:51;17.47;;;13.27;;
63807;SDS011;49961;43.970;22.868;2023-04-01T03:50:52;17.50;;;12.07;;
63807;SDS011;49961;43.970;22.868;2023-04-01T03:51:52;18.90;;;12.37;;
63807;SDS011;49961;43.970;22.868;2023-04-01T03:52:53;17.30;;;12.90;;
63807;SDS011;49961;43.970;22.868;2023-04-01T03:53:53;16.17;;;12.20;;
63807;SDS011;49961;43.970;22.868;2023-04-01T03:54:54;17.57;;;12.87;;
63807;SDS011;49961;43.970;22.868;2023-04-01T03:55:55;17.80;;;11.90;;
63807;SDS011;49961;43.970;22.868;2023-04-01T03:56:55;16.57;;;12.47;;
63807;SDS011;49961;43.970;22.868;2023-04-01T03:57:57;15.73;;;11.77;;
63807;SDS011;49961;43.970;22.868;2023-04-01T03:58:58;16.30;;;12.20;;
63807;SDS011;49961;43.970;22.868;2023-04-01T04:00:02;16.63;;;11.63;;
63807;SDS011;49961;43.970;22.868;2023-04-01T04:01:03;15.20;;;11.23;;
63807;SDS011;49961;43.970;22.868;2023-04-01T04:02:04;15.53;;;11.10;;
63807;SDS011;49961;43.970;22.868;2023-04-01T04:03:05;15.57;;;10.90;;
63807;SDS011;49961;43.970;22.868;2023-04-01T04:04:06;17.73;;;11.80;;
63807;SDS011;49961;43.970;22.868;2023-04-01T04:05:07;14.27;;;11.17;;
63807;SDS011;49961;43.970;22.868;2023-04-01T04:06:10;16.73;;;12.10;;
63807;SDS011;49961;43.970;22.868;2023-04-01T04:07:12;16.07;;;11.20;;
63807;SDS011;49961;43.970;22.868;2023-04-01T04:08:12;16.27;;;11.60;;
63807;SDS011;49961;43.970;22.868;2023-04-01T04:09:13;17.03;;;11.23;;
63807;SDS011;49961;43.970;22.868;2023-04-01T04:10:13;16.17;;;11.03;;
63807;SDS011;49961;43.970;22.868;2023-04-01T04:11:14;15.60;;;11.17;;
63807;SDS011;49961;43.970;22.868;2023-04-01T04:12:15;18.20;;;11.60;;
63807;SDS011;49961;43.970;22.868;2023-04-01T04:13:15;15.53;;;11.17;;
63807;SDS011;49961;43.970;22.868;2023-04-01T04:14:16;14.27;;;10.53;;
63807;SDS011;49961;43.970;22.868;2023-04-01T04:15:17;13.53;;;10.97;;
63807;SDS011;49961;43.970;22.868;2023-04-01T04:16:18;13.97;;;11.30;;
63807;SDS011;49961;43.970;22.868;2023-04-01T04:17:18;15.00;;;11.40;;
63807;SDS011;49961;43.970;22.868;2023-04-01T04:18:19;14.10;;;10.70;;
63807;SDS011;49961;43.970;22.868;2023-04-01T04:19:19;14.33;;;11.80;;
63807;SDS011;49961;43.970;22.868;2023-04-01T04:20:19;14.40;;;10.67;;
63807;SDS011;49961;43.970;22.868;2023-04-01T04:21:20;13.53;;;10.43;;
63807;SDS011;49961;43.970;22.868;2023-04-01T04:22:20;14.80;;;10.57;;
63807;SDS011;49961;43.970;22.868;2023-04-01T04:23:21;13.67;;;10.73;;
63807;SDS011;49961;43.970;22.868;2023-04-01T04:24:21;15.60;;;10.50;;
63807;SDS011;49961;43.970;22.868;2023-04-01T04:25:22;12.80;;;9.83;;
63807;SDS011;49961;43.970;22.868;2023-04-01T04:26:22;16.87;;;9.90;;
63807;SDS011;49961;43.970;22.868;2023-04-01T04:27:23;14.63;;;10.37;;
63807;SDS011;49961;43.970;22.868;2023-04-01T04:28:23;15.47;;;10.13;;
63807;SDS011;49961;43.970;22.868;2023-04-01T04:29:24;13.50;;;10.20;;
63807;SDS011;49961;43.970;22.868;2023-04-01T04:30:25;13.60;;;10.20;;
63807;SDS011;49961;43.970;22.868;2023-04-01T04:31:25;12.13;;;10.50;;
63807;SDS011;49961;43.970;22.868;2023-04-01T04:32:26;14.43;;;9.40;;
63807;SDS011;49961;43.970;22.868;2023-04-01T04:33:27;14.10;;;10.87;;
63807;SDS011;49961;43.970;22.868;2023-04-01T04:34:28;16.23;;;10.87;;
63807;SDS011;49961;43.970;22.868;2023-04-01T04:35:28;15.23;;;10.63;;
63807;SDS011;49961;43.970;22.868;2023-04-01T04:36:28;13.57;;;10.40;;
63807;SDS011;49961;43.970;22.868;2023-04-01T04:37:29;13.23;;;9.60;;
63807;SDS011;49961;43.970;22.868;2023-04-01T04:38:30;14.00;;;10.03;;
63807;SDS011;49961;43.970;22.868;2023-04-01T04:39:30;14.70;;;10.07;;
63807;SDS011;49961;43.970;22.868;2023-04-01T04:40:31;12.60;;;8.90;;
63807;SDS011;49961;43.970;22.868;2023-04-01T04:41:31;15.37;;;10.43;;
63807;SDS011;49961;43.970;22.868;2023-04-01T04:42:32;13.53;;;10.33;;
63807;SDS011;49961;43.970;22.868;2023-04-01T04:43:32;14.80;;;10.93;;
63807;SDS011;49961;43.970;22.868;2023-04-01T04:44:32;13.47;;;10.40;;
63807;SDS011;49961;43.970;22.868;2023-04-01T04:45:33;11.70;;;9.70;;
63807;SDS011;49961;43.970;22.868;2023-04-01T04:46:33;13.47;;;10.20;;
63807;SDS011;49961;43.970;22.868;2023-04-01T04:47:34;15.80;;;10.53;;
63807;SDS011;49961;43.970;22.868;2023-04-01T04:48:34;12.90;;;10.00;;
63807;SDS011;49961;43.970;22.868;2023-04-01T04:49:35;15.90;;;9.23;;
63807;SDS011;49961;43.970;22.868;2023-04-01T04:50:36;14.20;;;10.73;;
63807;SDS011;49961;43.970;22.868;2023-04-01T04:51:36;13.07;;;10.80;;
63807;SDS011;49961;43.970;22.868;2023-04-01T04:52:37;15.27;;;11.10;;
63807;SDS011;49961;43.970;22.868;2023-04-01T04:53:38;14.30;;;11.47;;
63807;SDS011;49961;43.970;22.868;2023-04-01T04:54:38;15.67;;;11.03;;
63807;SDS011;49961;43.970;22.868;2023-04-01T04:55:42;15.57;;;11.03;;
63807;SDS011;49961;43.970;22.868;2023-04-01T04:56:44;14.77;;;10.90;;
63807;SDS011;49961;43.970;22.868;2023-04-01T04:57:44;13.83;;;10.70;;
63807;SDS011;49961;43.970;22.868;2023-04-01T04:58:45;16.73;;;11.07;;
63807;SDS011;49961;43.970;22.868;2023-04-01T04:59:45;15.97;;;11.03;;
63807;SDS011;49961;43.970;22.868;2023-04-01T05:00:46;15.33;;;11.03;;
63807;SDS011;49961;43.970;22.868;2023-04-01T05:01:47;18.47;;;11.47;;
63807;SDS011;49961;43.970;22.868;2023-04-01T05:02:47;16.37;;;10.63;;
63807;SDS011;49961;43.970;22.868;2023-04-01T05:03:48;14.77;;;11.17;;
63807;SDS011;49961;43.970;22.868;2023-04-01T05:04:48;13.60;;;10.60;;
63807;SDS011;49961;43.970;22.868;2023-04-01T05:05:50;17.10;;;10.77;;
63807;SDS011;49961;43.970;22.868;2023-04-01T05:06:52;13.37;;;10.20;;
63807;SDS011;49961;43.970;22.868;2023-04-01T05:07:53;14.00;;;10.57;;
63807;SDS011;49961;43.970;22.868;2023-04-01T05:08:53;13.87;;;10.17;;
63807;SDS011;49961;43.970;22.868;2023-04-01T05:09:53;12.73;;;10.33;;
63807;SDS011;49961;43.970;22.868;2023-04-01T05:10:54;15.23;;;10.37;;
63807;SDS011;49961;43.970;22.868;2023-04-01T05:11:54;12.50;;;10.10;;
63807;SDS011;49961;43.970;22.868;2023-04-01T05:12:55;15.70;;;10.30;;
63807;SDS011;49961;43.970;22.868;2023-04-01T05:13:55;13.20;;;9.40;;
63807;SDS011;49961;43.970;22.868;2023-04-01T05:14:56;12.80;;;9.23;;
63807;SDS011;49961;43.970;22.868;2023-04-01T05:15:56;12.40;;;8.30;;
63807;SDS011;49961;43.970;22.868;2023-04-01T05:16:56;13.47;;;7.73;;
63807;SDS011;49961;43.970;22.868;2023-04-01T05:17:57;11.77;;;8.43;;
63807;SDS011;49961;43.970;22.868;2023-04-01T05:18:58;10.90;;;8.40;;
63807;SDS011;49961;43.970;22.868;2023-04-01T05:19:58;15.77;;;7.67;;
63807;SDS011;49961;43.970;22.868;2023-04-01T05:20:59;10.33;;;7.73;;
63807;SDS011;49961;43.970;22.868;2023-04-01T05:21:59;11.07;;;8.60;;
63807;SDS011;49961;43.970;22.868;2023-04-01T05:23:00;14.73;;;8.37;;
63807;SDS011;49961;43.970;22.868;2023-04-01T05:24:01;12.73;;;8.60;;
63807;SDS011;49961;43.970;22.868;2023-04-01T05:25:01;13.57;;;8.93;;
63807;SDS011;49961;43.970;22.868;2023-04-01T05:26:03;11.33;;;8.40;;
63807;SDS011;49961;43.970;22.868;2023-04-01T05:27:08;12.13;;;8.53;;
63807;SDS011;49961;43.970;22.868;2023-04-01T05:28:08;11.87;;;8.10;;
63807;SDS011;49961;43.970;22.868;2023-04-01T05:29:09;11.53;;;8.80;;
63807;SDS011;49961;43.970;22.868;2023-04-01T05:30:10;10.47;;;8.23;;
63807;SDS011;49961;43.970;22.868;2023-04-01T05:31:10;11.87;;;8.60;;
63807;SDS011;49961;43.970;22.868;2023-04-01T05:32:11;12.03;;;8.73;;
63807;SDS011;49961;43.970;22.868;2023-04-01T05:33:12;12.30;;;8.33;;
63807;SDS011;49961;43.970;22.868;2023-04-01T05:34:13;11.57;;;8.37;;
63807;SDS011;49961;43.970;22.868;2023-04-01T05:35:13;10.67;;;8.20;;
63807;SDS011;49961;43.970;22.868;2023-04-01T05:36:15;10.73;;;8.13;;
63807;SDS011;49961;43.970;22.868;2023-04-01T05:37:16;9.23;;;7.90;;
63807;SDS011;49961;43.970;22.868;2023-04-01T05:38:17;11.37;;;8.40;;
63807;SDS011;49961;43.970;22.868;2023-04-01T05:39:17;10.20;;;8.13;;
63807;SDS011;49961;43.970;22.868;2023-04-01T05:40:18;13.30;;;8.23;;
63807;SDS011;49961;43.970;22.868;2023-04-01T05:41:18;10.30;;;7.63;;
63807;SDS011;49961;43.970;22.868;2023-04-01T05:42:19;11.13;;;8.50;;
63807;SDS011;49961;43.970;22.868;2023-04-01T05:43:19;12.00;;;8.47;;
63807;SDS011;49961;43.970;22.868;2023-04-01T05:44:20;14.50;;;8.10;;
63807;SDS011;49961;43.970;22.868;2023-04-01T05:45:20;12.20;;;8.30;;
63807;SDS011;49961;43.970;22.868;2023-04-01T05:46:20;10.40;;;7.90;;
63807;SDS011;49961;43.970;22.868;2023-04-01T05:47:21;13.23;;;8.40;;
63807;SDS011;49961;43.970;22.868;2023-04-01T05:48:22;11.27;;;7.80;;
63807;SDS011;49961;43.970;22.868;2023-04-01T05:49:22;9.40;;;8.40;;
63807;SDS011;49961;43.970;22.868;2023-04-01T05:50:23;11.70;;;8.30;;
63807;SDS011;49961;43.970;22.868;2023-04-01T05:51:23;12.00;;;7.90;;
63807;SDS011;49961;43.970;22.868;2023-04-01T05:52:24;11.53;;;7.87;;
63807;SDS011;49961;43.970;22.868;2023-04-01T05:53:24;12.23;;;7.77;;
63807;SDS011;49961;43.970;22.868;2023-04-01T05:54:25;8.97;;;7.77;;
63807;SDS011;49961;43.970;22.868;2023-04-01T05:55:25;12.07;;;8.40;;
63807;SDS011;49961;43.970;22.868;2023-04-01T05:56:26;14.37;;;8.67;;
63807;SDS011;49961;43.970;22.868;2023-04-01T05:57:26;11.10;;;8.27;;
63807;SDS011;49961;43.970;22.868;2023-04-01T05:58:26;12.20;;;9.00;;
63807;SDS011;49961;43.970;22.868;2023-04-01T05:59:27;12.73;;;8.93;;
63807;SDS011;49961;43.970;22.868;2023-04-01T06:00:27;14.00;;;8.57;;
63807;SDS011;49961;43.970;22.868;2023-04-01T06:01:28;14.47;;;9.80;;
63807;SDS011;49961;43.970;22.868;2023-04-01T06:02:28;12.90;;;9.47;;
63807;SDS011;49961;43.970;22.868;2023-04-01T06:03:29;12.30;;;10.10;;
63807;SDS011;49961;43.970;22.868;2023-04-01T06:04:32;15.50;;;10.47;;
63807;SDS011;49961;43.970;22.868;2023-04-01T06:05:38;16.60;;;10.77;;
63807;SDS011;49961;43.970;22.868;2023-04-01T06:06:40;14.00;;;10.97;;
63807;SDS011;49961;43.970;22.868;2023-04-01T06:07:41;14.03;;;10.30;;
63807;SDS011;49961;43.970;22.868;2023-04-01T06:08:41;14.37;;;10.83;;
63807;SDS011;49961;43.970;22.868;2023-04-01T06:09:43;14.90;;;10.43;;
63807;SDS011;49961;43.970;22.868;2023-04-01T06:16:21;15.67;;;12.07;;
63807;SDS011;49961;43.970;22.868;2023-04-01T06:22:43;15.87;;;12.10;;
63807;SDS011;49961;43.970;22.868;2023-04-01T06:42:11;17.40;;;13.27;;
63807;SDS011;49961;43.970;22.868;2023-04-01T06:44:53;17.63;;;13.27;;
63807;SDS011;49961;43.970;22.868;2023-04-01T06:51:01;21.33;;;13.20;;
63807;SDS011;49961;43.970;22.868;2023-04-01T06:51:58;16.50;;;13.20;;
63807;SDS011;49961;43.970;22.868;2023-04-01T06:54:38;16.23;;;13.07;;
63807;SDS011;49961;43.970;22.868;2023-04-01T06:55:44;18.50;;;13.67;;